JBU1084 KBOS-KRDU
Flight info
| Callsign | JBU1084 |
|---|---|
| Flight time | 1h 58m |
| Altitude | 34000 |
| Route | SSOXS7 SSOXS Q167 ZJAAY TAQLE3 |
| Aircraft | A321/M-SDE3FGHIRWY/LB1 |
Departure
| Time | 2026-05-07 00:30 |
|---|---|
| Airport | Boston Logan International Airport (KBOS) |
Arrival
| Time | 2026-05-07 02:28 |
|---|---|
| Airport | Raleigh-Durham International Airport (KRDU) |
| Time | Latitude | Longitude | Altitude | Speed | Heading |
|---|---|---|---|---|---|
| 2026-05-06 23:34 | 42.36565 | -71.01663 | 30 ft | 0 kts | 336° |
| 2026-05-07 00:09 | 42.36557 | -71.01658 | 30 ft | 4 kts | 331° |
| 2026-05-07 00:10 | 42.36536 | -71.01636 | 30 ft | 4 kts | 313° |
| 2026-05-07 00:10 | 42.36520 | -71.01618 | 29 ft | 2 kts | 336° |
| 2026-05-07 00:10 | 42.36501 | -71.01600 | 29 ft | 4 kts | 294° |
| 2026-05-07 00:10 | 42.36491 | -71.01572 | 30 ft | 4 kts | 335° |
| 2026-05-07 00:11 | 42.36466 | -71.01560 | 29 ft | 4 kts | 353° |
| 2026-05-07 00:11 | 42.36443 | -71.01563 | 30 ft | 4 kts | 47° |
| 2026-05-07 00:11 | 42.36441 | -71.01582 | 29 ft | 4 kts | 117° |
| 2026-05-07 00:11 | 42.36455 | -71.01614 | 30 ft | 4 kts | 122° |
| 2026-05-07 00:12 | 42.36462 | -71.01629 | 30 ft | 0 kts | 117° |
| 2026-05-07 00:15 | 42.36461 | -71.01629 | 30 ft | 0 kts | 117° |
| 2026-05-07 00:15 | 42.36455 | -71.01609 | 30 ft | 8 kts | 115° |
| 2026-05-07 00:15 | 42.36430 | -71.01548 | 30 ft | 5 kts | 121° |
| 2026-05-07 00:15 | 42.36411 | -71.01508 | 29 ft | 5 kts | 122° |
| 2026-05-07 00:16 | 42.36397 | -71.01475 | 29 ft | 5 kts | 112° |
| 2026-05-07 00:16 | 42.36407 | -71.01405 | 25 ft | 9 kts | 47° |
| 2026-05-07 00:16 | 42.36445 | -71.01378 | 27 ft | 5 kts | 22° |
| 2026-05-07 00:16 | 42.36450 | -71.01375 | 29 ft | 0 kts | 22° |
| 2026-05-07 00:17 | 42.36469 | -71.01364 | 29 ft | 8 kts | 22° |
| 2026-05-07 00:17 | 42.36520 | -71.01332 | 27 ft | 7 kts | 26° |
| 2026-05-07 00:17 | 42.36571 | -71.01301 | 27 ft | 10 kts | 22° |
| 2026-05-07 00:17 | 42.36647 | -71.01266 | 27 ft | 12 kts | 16° |
| 2026-05-07 00:18 | 42.36726 | -71.01243 | 27 ft | 11 kts | 2° |
| 2026-05-07 00:18 | 42.36754 | -71.01247 | 30 ft | 5 kts | 350° |
| 2026-05-07 00:18 | 42.36803 | -71.01286 | 25 ft | 10 kts | 321° |
| 2026-05-07 00:18 | 42.36859 | -71.01363 | 29 ft | 13 kts | 314° |
| 2026-05-07 00:19 | 42.36925 | -71.01453 | 30 ft | 14 kts | 315° |
| 2026-05-07 00:19 | 42.36990 | -71.01550 | 27 ft | 14 kts | 313° |
| 2026-05-07 00:19 | 42.37062 | -71.01642 | 25 ft | 13 kts | 317° |
| 2026-05-07 00:19 | 42.37134 | -71.01681 | 25 ft | 10 kts | 18° |
| 2026-05-07 00:20 | 42.37143 | -71.01624 | 27 ft | 0 kts | 118° |
| 2026-05-07 00:20 | 42.37143 | -71.01623 | 27 ft | 0 kts | 113° |
| 2026-05-07 00:20 | 42.37145 | -71.01628 | 27 ft | 1 kts | 96° |
| 2026-05-07 00:21 | 42.37143 | -71.01617 | 25 ft | 4 kts | 108° |
| 2026-05-07 00:21 | 42.37118 | -71.01588 | 25 ft | 9 kts | 139° |
| 2026-05-07 00:21 | 42.37043 | -71.01488 | 25 ft | 18 kts | 134° |
| 2026-05-07 00:21 | 42.36959 | -71.01373 | 26 ft | 12 kts | 135° |
| 2026-05-07 00:22 | 42.36922 | -71.01281 | 25 ft | 12 kts | 91° |
| 2026-05-07 00:22 | 42.36940 | -71.01172 | 25 ft | 12 kts | 63° |
| 2026-05-07 00:22 | 42.37003 | -71.01096 | 28 ft | 12 kts | 32° |
| 2026-05-07 00:22 | 42.37077 | -71.01055 | 25 ft | 12 kts | 21° |
| 2026-05-07 00:23 | 42.37155 | -71.01004 | 29 ft | 13 kts | 26° |
| 2026-05-07 00:23 | 42.37235 | -71.00951 | 27 ft | 13 kts | 25° |
| 2026-05-07 00:23 | 42.37315 | -71.00901 | 28 ft | 13 kts | 24° |
| 2026-05-07 00:23 | 42.37399 | -71.00858 | 30 ft | 13 kts | 20° |
| 2026-05-07 00:24 | 42.37484 | -71.00819 | 27 ft | 13 kts | 19° |
| 2026-05-07 00:24 | 42.37575 | -71.00776 | 27 ft | 15 kts | 19° |
| 2026-05-07 00:24 | 42.37624 | -71.00752 | 27 ft | 10 kts | 19° |
| 2026-05-07 00:24 | 42.37681 | -71.00724 | 27 ft | 7 kts | 20° |
| 2026-05-07 00:25 | 42.37726 | -71.00702 | 27 ft | 7 kts | 20° |
| 2026-05-07 00:25 | 42.37760 | -71.00685 | 25 ft | 0 kts | 20° |
| 2026-05-07 00:25 | 42.37772 | -71.00680 | 27 ft | 3 kts | 20° |
| 2026-05-07 00:26 | 42.37776 | -71.00677 | 27 ft | 0 kts | 20° |
| 2026-05-07 00:26 | 42.37782 | -71.00675 | 27 ft | 4 kts | 20° |
| 2026-05-07 00:26 | 42.37811 | -71.00660 | 28 ft | 5 kts | 24° |
| 2026-05-07 00:27 | 42.37825 | -71.00643 | 27 ft | 3 kts | 49° |
| 2026-05-07 00:27 | 42.37833 | -71.00584 | 26 ft | 0 kts | 101° |
| 2026-05-07 00:28 | 42.37831 | -71.00576 | 25 ft | 6 kts | 101° |
| 2026-05-07 00:28 | 42.37791 | -71.00484 | 26 ft | 12 kts | 169° |
| 2026-05-07 00:28 | 42.37778 | -71.00486 | 25 ft | 0 kts | 190° |
| 2026-05-07 00:29 | 42.37761 | -71.00491 | 27 ft | 18 kts | 192° |
| 2026-05-07 00:30 | 42.35732 | -71.01509 | 626 ft | 141 kts | 200° |
| 2026-05-07 00:30 | 42.34786 | -71.01861 | 1138 ft | 143 kts | 194° |
| 2026-05-07 00:30 | 42.33757 | -71.01808 | 1531 ft | 163 kts | 161° |
| 2026-05-07 00:30 | 42.32864 | -71.00673 | 1885 ft | 189 kts | 137° |
| 2026-05-07 00:31 | 42.32068 | -70.99169 | 2226 ft | 203 kts | 133° |
| 2026-05-07 00:31 | 42.31435 | -70.97373 | 2560 ft | 223 kts | 110° |
| 2026-05-07 00:31 | 42.31256 | -70.95218 | 2904 ft | 239 kts | 91° |
| 2026-05-07 00:31 | 42.31535 | -70.92899 | 3003 ft | 263 kts | 78° |
| 2026-05-07 00:32 | 42.31918 | -70.90400 | 3010 ft | 276 kts | 79° |
| 2026-05-07 00:32 | 42.32295 | -70.87781 | 3005 ft | 288 kts | 81° |
| 2026-05-07 00:32 | 42.32679 | -70.85057 | 2994 ft | 300 kts | 81° |
| 2026-05-07 00:32 | 42.32971 | -70.82285 | 3136 ft | 296 kts | 91° |
| 2026-05-07 00:33 | 42.32832 | -70.79553 | 3194 ft | 287 kts | 105° |
| 2026-05-07 00:33 | 42.32261 | -70.76997 | 3788 ft | 286 kts | 118° |
| 2026-05-07 00:33 | 42.31432 | -70.74545 | 4256 ft | 288 kts | 120° |
| 2026-05-07 00:33 | 42.30580 | -70.72080 | 4763 ft | 290 kts | 122° |
| 2026-05-07 00:34 | 42.29455 | -70.69853 | 5254 ft | 286 kts | 138° |
| 2026-05-07 00:34 | 42.27973 | -70.68115 | 5758 ft | 280 kts | 154° |
| 2026-05-07 00:34 | 42.26250 | -70.66953 | 6275 ft | 274 kts | 168° |
| 2026-05-07 00:34 | 42.24438 | -70.66135 | 6757 ft | 276 kts | 169° |
| 2026-05-07 00:35 | 42.22610 | -70.65307 | 7243 ft | 278 kts | 168° |
| 2026-05-07 00:35 | 42.20772 | -70.64467 | 7735 ft | 280 kts | 168° |
| 2026-05-07 00:35 | 42.18927 | -70.63619 | 8286 ft | 279 kts | 169° |
| 2026-05-07 00:35 | 42.17073 | -70.62767 | 8889 ft | 283 kts | 169° |
| 2026-05-07 00:36 | 42.15225 | -70.61976 | 9763 ft | 267 kts | 173° |
| 2026-05-07 00:36 | 42.13423 | -70.61604 | 10373 ft | 257 kts | 193° |
| 2026-05-07 00:36 | 42.11662 | -70.61976 | 10879 ft | 258 kts | 199° |
| 2026-05-07 00:36 | 42.09899 | -70.62482 | 11473 ft | 259 kts | 200° |
| 2026-05-07 00:37 | 42.08137 | -70.63000 | 12111 ft | 260 kts | 200° |
| 2026-05-07 00:37 | 42.06358 | -70.63523 | 12748 ft | 260 kts | 200° |
| 2026-05-07 00:37 | 42.04597 | -70.64039 | 13398 ft | 260 kts | 200° |
| 2026-05-07 00:37 | 42.02826 | -70.64555 | 14008 ft | 260 kts | 200° |
| 2026-05-07 00:38 | 42.01061 | -70.65065 | 14596 ft | 259 kts | 200° |
| 2026-05-07 00:38 | 41.99304 | -70.65568 | 15212 ft | 257 kts | 200° |
| 2026-05-07 00:38 | 41.97557 | -70.66063 | 15820 ft | 255 kts | 200° |
| 2026-05-07 00:38 | 41.95830 | -70.66545 | 16425 ft | 252 kts | 200° |
| 2026-05-07 00:39 | 41.94124 | -70.67011 | 17028 ft | 250 kts | 200° |
| 2026-05-07 00:39 | 41.92409 | -70.67483 | 17472 ft | 253 kts | 200° |
| 2026-05-07 00:39 | 41.90687 | -70.68015 | 17888 ft | 253 kts | 208° |
| 2026-05-07 00:39 | 41.89177 | -70.69184 | 18175 ft | 253 kts | 220° |
| 2026-05-07 00:40 | 41.87754 | -70.70588 | 18428 ft | 261 kts | 220° |
| 2026-05-07 00:40 | 41.86270 | -70.72056 | 18684 ft | 270 kts | 221° |
| 2026-05-07 00:40 | 41.84735 | -70.73576 | 18940 ft | 278 kts | 221° |
| 2026-05-07 00:40 | 41.83109 | -70.75066 | 19206 ft | 289 kts | 215° |
| 2026-05-07 00:41 | 41.81336 | -70.76408 | 19469 ft | 297 kts | 215° |
| 2026-05-07 00:41 | 41.79512 | -70.77780 | 19737 ft | 305 kts | 215° |
| 2026-05-07 00:41 | 41.77641 | -70.79186 | 19974 ft | 312 kts | 216° |
| 2026-05-07 00:41 | 41.75721 | -70.80629 | 20215 ft | 322 kts | 216° |
| 2026-05-07 00:42 | 41.73730 | -70.82131 | 20258 ft | 336 kts | 216° |
| 2026-05-07 00:42 | 41.71649 | -70.83698 | 20307 ft | 350 kts | 216° |
| 2026-05-07 00:42 | 41.69482 | -70.85324 | 20364 ft | 364 kts | 215° |
| 2026-05-07 00:42 | 41.67238 | -70.87002 | 20452 ft | 375 kts | 215° |
| 2026-05-07 00:43 | 41.64929 | -70.88725 | 20582 ft | 385 kts | 215° |
| 2026-05-07 00:43 | 41.62558 | -70.90491 | 20686 ft | 395 kts | 215° |
| 2026-05-07 00:43 | 41.60134 | -70.92300 | 20782 ft | 403 kts | 216° |
| 2026-05-07 00:43 | 41.57682 | -70.94146 | 21033 ft | 406 kts | 218° |
| 2026-05-07 00:44 | 41.55406 | -70.96337 | 21329 ft | 402 kts | 226° |
| 2026-05-07 00:44 | 41.53445 | -70.98969 | 21636 ft | 399 kts | 234° |
| 2026-05-07 00:44 | 41.51827 | -71.01962 | 21950 ft | 398 kts | 240° |
| 2026-05-07 00:44 | 41.50293 | -71.05052 | 22264 ft | 400 kts | 240° |
| 2026-05-07 00:45 | 41.48747 | -71.08147 | 22570 ft | 402 kts | 240° |
| 2026-05-07 00:45 | 41.47185 | -71.11260 | 22862 ft | 405 kts | 240° |
| 2026-05-07 00:45 | 41.45612 | -71.14389 | 23215 ft | 407 kts | 241° |
| 2026-05-07 00:45 | 41.44036 | -71.17525 | 23508 ft | 408 kts | 241° |
| 2026-05-07 00:46 | 41.42455 | -71.20668 | 23800 ft | 408 kts | 241° |
| 2026-05-07 00:46 | 41.40871 | -71.23812 | 24084 ft | 409 kts | 241° |
| 2026-05-07 00:46 | 41.39286 | -71.26957 | 24391 ft | 409 kts | 241° |
| 2026-05-07 00:46 | 41.37700 | -71.30095 | 24688 ft | 408 kts | 241° |
| 2026-05-07 00:47 | 41.36117 | -71.33228 | 24985 ft | 408 kts | 241° |
| 2026-05-07 00:47 | 41.34537 | -71.36359 | 25296 ft | 407 kts | 241° |
| 2026-05-07 00:47 | 41.32958 | -71.39486 | 25612 ft | 406 kts | 241° |
| 2026-05-07 00:47 | 41.31385 | -71.42603 | 25922 ft | 405 kts | 241° |
| 2026-05-07 00:48 | 41.29816 | -71.45713 | 26237 ft | 404 kts | 241° |
| 2026-05-07 00:48 | 41.28247 | -71.48813 | 26560 ft | 403 kts | 241° |
| 2026-05-07 00:48 | 41.26684 | -71.51896 | 26888 ft | 402 kts | 241° |
| 2026-05-07 00:48 | 41.25123 | -71.54971 | 27212 ft | 401 kts | 241° |
| 2026-05-07 00:49 | 41.23572 | -71.58020 | 27577 ft | 396 kts | 241° |
| 2026-05-07 00:49 | 41.22028 | -71.61045 | 27914 ft | 395 kts | 241° |
| 2026-05-07 00:49 | 41.20511 | -71.64018 | 28242 ft | 393 kts | 241° |
| 2026-05-07 00:49 | 41.18984 | -71.67015 | 28590 ft | 392 kts | 241° |
| 2026-05-07 00:50 | 41.17461 | -71.70006 | 28943 ft | 390 kts | 241° |
| 2026-05-07 00:50 | 41.15945 | -71.72978 | 29301 ft | 388 kts | 241° |
| 2026-05-07 00:50 | 41.14431 | -71.75935 | 29625 ft | 387 kts | 241° |
| 2026-05-07 00:50 | 41.12925 | -71.78888 | 29975 ft | 385 kts | 241° |
| 2026-05-07 00:51 | 41.11432 | -71.81827 | 30281 ft | 383 kts | 241° |
| 2026-05-07 00:51 | 41.09948 | -71.84753 | 30597 ft | 382 kts | 242° |
| 2026-05-07 00:51 | 41.08468 | -71.87665 | 30903 ft | 380 kts | 242° |
| 2026-05-07 00:51 | 41.06993 | -71.90560 | 31221 ft | 378 kts | 242° |
| 2026-05-07 00:52 | 41.05522 | -71.93440 | 31557 ft | 377 kts | 242° |
| 2026-05-07 00:52 | 41.04056 | -71.96309 | 31882 ft | 374 kts | 243° |
| 2026-05-07 00:52 | 41.02811 | -71.99284 | 32210 ft | 366 kts | 250° |
| 2026-05-07 00:52 | 41.01742 | -72.02340 | 32541 ft | 365 kts | 250° |
| 2026-05-07 00:53 | 41.00677 | -72.05372 | 32880 ft | 362 kts | 250° |
| 2026-05-07 00:53 | 40.99614 | -72.08386 | 33217 ft | 360 kts | 250° |
| 2026-05-07 00:53 | 40.98556 | -72.11384 | 33487 ft | 359 kts | 250° |
| 2026-05-07 00:53 | 40.97498 | -72.14373 | 33772 ft | 358 kts | 250° |
| 2026-05-07 00:54 | 40.95368 | -72.20411 | 33905 ft | 366 kts | 250° |
| 2026-05-07 00:54 | 40.93186 | -72.26592 | 33915 ft | 375 kts | 250° |
| 2026-05-07 00:55 | 40.90484 | -72.32570 | 33898 ft | 390 kts | 237° |
| 2026-05-07 00:55 | 40.86589 | -72.37701 | 33900 ft | 396 kts | 234° |
| 2026-05-07 00:56 | 40.82666 | -72.42798 | 33865 ft | 396 kts | 234° |
| 2026-05-07 00:56 | 40.78613 | -72.47779 | 33897 ft | 402 kts | 230° |
| 2026-05-07 00:57 | 40.74282 | -72.52480 | 33905 ft | 404 kts | 229° |
| 2026-05-07 00:57 | 40.69935 | -72.57180 | 33908 ft | 404 kts | 229° |
| 2026-05-07 00:58 | 40.65644 | -72.61942 | 33873 ft | 401 kts | 231° |
| 2026-05-07 00:58 | 40.61486 | -72.66767 | 33882 ft | 398 kts | 232° |
| 2026-05-07 00:59 | 40.55241 | -72.74016 | 33895 ft | 395 kts | 231° |
| 2026-05-07 01:00 | 40.51144 | -72.78705 | 33900 ft | 392 kts | 232° |
| 2026-05-07 01:00 | 40.47024 | -72.83425 | 33871 ft | 393 kts | 232° |
| 2026-05-07 01:01 | 40.42895 | -72.88137 | 33899 ft | 394 kts | 232° |
| 2026-05-07 01:01 | 40.38757 | -72.92846 | 33901 ft | 394 kts | 232° |
| 2026-05-07 01:02 | 40.34615 | -72.97559 | 33916 ft | 394 kts | 232° |
| 2026-05-07 01:02 | 40.30470 | -73.02256 | 33921 ft | 394 kts | 232° |
| 2026-05-07 01:03 | 40.26353 | -73.06923 | 33876 ft | 394 kts | 232° |
| 2026-05-07 01:03 | 40.22200 | -73.11625 | 33889 ft | 395 kts | 232° |
| 2026-05-07 01:04 | 40.18041 | -73.16327 | 33909 ft | 395 kts | 232° |
| 2026-05-07 01:04 | 40.13873 | -73.21022 | 33915 ft | 396 kts | 232° |
| 2026-05-07 01:05 | 40.09700 | -73.25713 | 33879 ft | 396 kts | 232° |
| 2026-05-07 01:05 | 40.05519 | -73.30402 | 33920 ft | 397 kts | 232° |
| 2026-05-07 01:06 | 40.01336 | -73.35099 | 33922 ft | 396 kts | 232° |
| 2026-05-07 01:06 | 39.97153 | -73.39778 | 33934 ft | 396 kts | 232° |
| 2026-05-07 01:07 | 39.92971 | -73.44453 | 33883 ft | 396 kts | 232° |
| 2026-05-07 01:07 | 39.88785 | -73.49118 | 33895 ft | 397 kts | 231° |
| 2026-05-07 01:08 | 39.84570 | -73.53799 | 33886 ft | 399 kts | 231° |
| 2026-05-07 01:08 | 39.80342 | -73.58506 | 33888 ft | 401 kts | 231° |
| 2026-05-07 01:09 | 39.76819 | -73.62434 | 33899 ft | 402 kts | 231° |
| 2026-05-07 01:09 | 39.72562 | -73.67172 | 33895 ft | 403 kts | 231° |
| 2026-05-07 01:10 | 39.68299 | -73.71901 | 33925 ft | 403 kts | 231° |
| 2026-05-07 01:10 | 39.64031 | -73.76616 | 33934 ft | 402 kts | 231° |
| 2026-05-07 01:11 | 39.59772 | -73.81316 | 33934 ft | 402 kts | 231° |
| 2026-05-07 01:11 | 39.55513 | -73.86015 | 33936 ft | 402 kts | 231° |
| 2026-05-07 01:12 | 39.51261 | -73.90707 | 33940 ft | 401 kts | 231° |
| 2026-05-07 01:12 | 39.47009 | -73.95377 | 33934 ft | 401 kts | 231° |
| 2026-05-07 01:13 | 39.42751 | -74.00048 | 33938 ft | 401 kts | 231° |
| 2026-05-07 01:13 | 39.38500 | -74.04707 | 33951 ft | 400 kts | 231° |
| 2026-05-07 01:14 | 39.34261 | -74.09341 | 33910 ft | 399 kts | 230° |
| 2026-05-07 01:14 | 39.30028 | -74.13966 | 33914 ft | 399 kts | 230° |
| 2026-05-07 01:15 | 39.25781 | -74.18589 | 33922 ft | 400 kts | 230° |
| 2026-05-07 01:15 | 39.21524 | -74.23217 | 33920 ft | 400 kts | 230° |
| 2026-05-07 01:16 | 39.17275 | -74.27838 | 33877 ft | 400 kts | 230° |
| 2026-05-07 01:16 | 39.13009 | -74.32461 | 33884 ft | 401 kts | 230° |
| 2026-05-07 01:17 | 39.08756 | -74.37070 | 33911 ft | 403 kts | 230° |
| 2026-05-07 01:17 | 39.04458 | -74.41714 | 33933 ft | 403 kts | 230° |
| 2026-05-07 01:18 | 39.00131 | -74.46372 | 33931 ft | 403 kts | 230° |
| 2026-05-07 01:18 | 38.97992 | -74.48667 | 33745 ft | 396 kts | 229° |
| 2026-05-07 01:18 | 38.95899 | -74.50908 | 33474 ft | 390 kts | 229° |
| 2026-05-07 01:18 | 38.93818 | -74.53143 | 33210 ft | 389 kts | 230° |
| 2026-05-07 01:19 | 38.91781 | -74.55423 | 32948 ft | 390 kts | 231° |
| 2026-05-07 01:19 | 38.89761 | -74.57795 | 32708 ft | 397 kts | 232° |
| 2026-05-07 01:19 | 38.87732 | -74.60226 | 32453 ft | 401 kts | 232° |
| 2026-05-07 01:19 | 38.85717 | -74.62645 | 32198 ft | 403 kts | 231° |
| 2026-05-07 01:20 | 38.83632 | -74.65127 | 31964 ft | 404 kts | 231° |
| 2026-05-07 01:20 | 38.79500 | -74.69973 | 31913 ft | 407 kts | 231° |
| 2026-05-07 01:21 | 38.75282 | -74.74875 | 31913 ft | 411 kts | 230° |
| 2026-05-07 01:21 | 38.70908 | -74.79643 | 31910 ft | 415 kts | 227° |
| 2026-05-07 01:22 | 38.66387 | -74.84254 | 31904 ft | 416 kts | 227° |
| 2026-05-07 01:22 | 38.61867 | -74.88860 | 31904 ft | 415 kts | 227° |
| 2026-05-07 01:23 | 38.57371 | -74.93514 | 31905 ft | 417 kts | 227° |
| 2026-05-07 01:23 | 38.52869 | -74.98201 | 31907 ft | 418 kts | 227° |
| 2026-05-07 01:24 | 38.48464 | -75.03006 | 31918 ft | 416 kts | 229° |
| 2026-05-07 01:24 | 38.44054 | -75.07783 | 31858 ft | 414 kts | 226° |
| 2026-05-07 01:24 | 38.41785 | -75.09985 | 31603 ft | 406 kts | 225° |
| 2026-05-07 01:25 | 38.39508 | -75.12097 | 31313 ft | 404 kts | 224° |
| 2026-05-07 01:25 | 38.37214 | -75.14197 | 31066 ft | 410 kts | 223° |
| 2026-05-07 01:25 | 38.34881 | -75.16354 | 30831 ft | 417 kts | 223° |
| 2026-05-07 01:25 | 38.32528 | -75.18551 | 30592 ft | 420 kts | 223° |
| 2026-05-07 01:26 | 38.30179 | -75.20761 | 30356 ft | 421 kts | 223° |
| 2026-05-07 01:26 | 38.27823 | -75.22994 | 30127 ft | 423 kts | 223° |
| 2026-05-07 01:26 | 38.25463 | -75.25237 | 29875 ft | 424 kts | 223° |
| 2026-05-07 01:26 | 38.23101 | -75.27482 | 29603 ft | 425 kts | 223° |
| 2026-05-07 01:27 | 38.20730 | -75.29732 | 29324 ft | 426 kts | 223° |
| 2026-05-07 01:27 | 38.18349 | -75.31987 | 29023 ft | 427 kts | 223° |
| 2026-05-07 01:27 | 38.15956 | -75.34249 | 28751 ft | 430 kts | 223° |
| 2026-05-07 01:27 | 38.13547 | -75.36521 | 28480 ft | 432 kts | 223° |
| 2026-05-07 01:28 | 38.11127 | -75.38797 | 28227 ft | 434 kts | 223° |
| 2026-05-07 01:28 | 38.08700 | -75.41074 | 27968 ft | 435 kts | 223° |
| 2026-05-07 01:28 | 38.06261 | -75.43361 | 27733 ft | 436 kts | 223° |
| 2026-05-07 01:28 | 38.03970 | -75.45812 | 27474 ft | 429 kts | 229° |
| 2026-05-07 01:29 | 38.01775 | -75.48392 | 27222 ft | 430 kts | 229° |
| 2026-05-07 01:29 | 37.99584 | -75.50965 | 26970 ft | 431 kts | 229° |
| 2026-05-07 01:29 | 37.97380 | -75.53552 | 26681 ft | 434 kts | 228° |
| 2026-05-07 01:29 | 37.95152 | -75.56167 | 26448 ft | 437 kts | 228° |
| 2026-05-07 01:30 | 37.92913 | -75.58786 | 26223 ft | 438 kts | 228° |
| 2026-05-07 01:30 | 37.90667 | -75.61407 | 25988 ft | 439 kts | 228° |
| 2026-05-07 01:30 | 37.88422 | -75.64028 | 25913 ft | 440 kts | 228° |
| 2026-05-07 01:30 | 37.86165 | -75.66662 | 25929 ft | 441 kts | 228° |
| 2026-05-07 01:31 | 37.83909 | -75.69290 | 25929 ft | 441 kts | 228° |
| 2026-05-07 01:31 | 37.81649 | -75.71918 | 25930 ft | 441 kts | 228° |
| 2026-05-07 01:31 | 37.79311 | -75.74635 | 25930 ft | 441 kts | 228° |
| 2026-05-07 01:31 | 37.77129 | -75.77170 | 25918 ft | 443 kts | 227° |
| 2026-05-07 01:32 | 37.74857 | -75.79810 | 25940 ft | 444 kts | 228° |
| 2026-05-07 01:32 | 37.72593 | -75.82439 | 25932 ft | 442 kts | 228° |
| 2026-05-07 01:32 | 37.70325 | -75.85072 | 25933 ft | 442 kts | 228° |
| 2026-05-07 01:32 | 37.68061 | -75.87697 | 25934 ft | 442 kts | 228° |
| 2026-05-07 01:33 | 37.65797 | -75.90317 | 25933 ft | 442 kts | 228° |
| 2026-05-07 01:33 | 37.63531 | -75.92937 | 25933 ft | 442 kts | 228° |
| 2026-05-07 01:33 | 37.61267 | -75.95562 | 25924 ft | 441 kts | 229° |
| 2026-05-07 01:33 | 37.59239 | -75.98430 | 25928 ft | 436 kts | 236° |
| 2026-05-07 01:34 | 37.57334 | -76.01406 | 25929 ft | 436 kts | 235° |
| 2026-05-07 01:34 | 37.55420 | -76.04383 | 25930 ft | 436 kts | 235° |
| 2026-05-07 01:34 | 37.53513 | -76.07346 | 25927 ft | 436 kts | 235° |
| 2026-05-07 01:34 | 37.51598 | -76.10313 | 25929 ft | 436 kts | 235° |
| 2026-05-07 01:35 | 37.49683 | -76.13275 | 25931 ft | 436 kts | 235° |
| 2026-05-07 01:35 | 37.47766 | -76.16239 | 25941 ft | 435 kts | 236° |
| 2026-05-07 01:35 | 37.45858 | -76.19183 | 25932 ft | 434 kts | 236° |
| 2026-05-07 01:35 | 37.43953 | -76.22128 | 25923 ft | 433 kts | 236° |
| 2026-05-07 01:36 | 37.42050 | -76.25069 | 25926 ft | 433 kts | 236° |
| 2026-05-07 01:36 | 37.40148 | -76.28008 | 25925 ft | 433 kts | 236° |
| 2026-05-07 01:36 | 37.38243 | -76.30947 | 25904 ft | 435 kts | 235° |
| 2026-05-07 01:36 | 37.36349 | -76.33865 | 25928 ft | 438 kts | 235° |
| 2026-05-07 01:37 | 37.34398 | -76.36873 | 25919 ft | 439 kts | 235° |
| 2026-05-07 01:37 | 37.32466 | -76.39841 | 25921 ft | 439 kts | 235° |
| 2026-05-07 01:37 | 37.30530 | -76.42812 | 25924 ft | 439 kts | 235° |
| 2026-05-07 01:37 | 37.28602 | -76.45769 | 25921 ft | 435 kts | 235° |
| 2026-05-07 01:38 | 37.26696 | -76.48686 | 25923 ft | 431 kts | 235° |
| 2026-05-07 01:38 | 37.24796 | -76.51601 | 25951 ft | 429 kts | 235° |
| 2026-05-07 01:38 | 37.22930 | -76.54501 | 25940 ft | 426 kts | 236° |
| 2026-05-07 01:38 | 37.21081 | -76.57389 | 25934 ft | 425 kts | 236° |
| 2026-05-07 01:39 | 37.19233 | -76.60286 | 25933 ft | 425 kts | 236° |
| 2026-05-07 01:39 | 37.17387 | -76.63186 | 25930 ft | 428 kts | 235° |
| 2026-05-07 01:39 | 37.15525 | -76.66111 | 25935 ft | 430 kts | 235° |
| 2026-05-07 01:39 | 37.13658 | -76.69033 | 25933 ft | 430 kts | 235° |
| 2026-05-07 01:40 | 37.11779 | -76.71959 | 25934 ft | 431 kts | 235° |
| 2026-05-07 01:40 | 37.09898 | -76.74876 | 25931 ft | 431 kts | 235° |
| 2026-05-07 01:40 | 37.08012 | -76.77797 | 25933 ft | 431 kts | 235° |
| 2026-05-07 01:40 | 37.06130 | -76.80711 | 25931 ft | 431 kts | 235° |
| 2026-05-07 01:41 | 37.04248 | -76.83626 | 25931 ft | 430 kts | 235° |
| 2026-05-07 01:41 | 37.02361 | -76.86541 | 25932 ft | 430 kts | 235° |
| 2026-05-07 01:41 | 37.00479 | -76.89441 | 25944 ft | 428 kts | 235° |
| 2026-05-07 01:41 | 36.98607 | -76.92324 | 25911 ft | 427 kts | 235° |
| 2026-05-07 01:42 | 36.96727 | -76.95228 | 25948 ft | 432 kts | 234° |
| 2026-05-07 01:42 | 36.94830 | -76.98152 | 25943 ft | 433 kts | 234° |
| 2026-05-07 01:42 | 36.92932 | -77.01078 | 25944 ft | 434 kts | 234° |
| 2026-05-07 01:42 | 36.91024 | -77.04005 | 25948 ft | 434 kts | 234° |
| 2026-05-07 01:43 | 36.89102 | -77.06924 | 25747 ft | 435 kts | 234° |
| 2026-05-07 01:43 | 36.87167 | -77.09835 | 25336 ft | 436 kts | 234° |
| 2026-05-07 01:43 | 36.85220 | -77.12746 | 24915 ft | 437 kts | 234° |
| 2026-05-07 01:43 | 36.83265 | -77.15660 | 24504 ft | 439 kts | 234° |
| 2026-05-07 01:44 | 36.81305 | -77.18590 | 24093 ft | 440 kts | 234° |
| 2026-05-07 01:44 | 36.79346 | -77.21524 | 23713 ft | 439 kts | 234° |
| 2026-05-07 01:44 | 36.77396 | -77.24446 | 23259 ft | 436 kts | 234° |
| 2026-05-07 01:44 | 36.75460 | -77.27346 | 22775 ft | 433 kts | 234° |
| 2026-05-07 01:45 | 36.73545 | -77.30212 | 22320 ft | 430 kts | 234° |
| 2026-05-07 01:45 | 36.71638 | -77.33068 | 21862 ft | 427 kts | 234° |
| 2026-05-07 01:45 | 36.69744 | -77.35902 | 21412 ft | 424 kts | 234° |
| 2026-05-07 01:45 | 36.67861 | -77.38717 | 20963 ft | 422 kts | 234° |
| 2026-05-07 01:46 | 36.65983 | -77.41514 | 20527 ft | 420 kts | 234° |
| 2026-05-07 01:46 | 36.64112 | -77.44294 | 20101 ft | 417 kts | 234° |
| 2026-05-07 01:46 | 36.62251 | -77.47059 | 19656 ft | 415 kts | 234° |
| 2026-05-07 01:46 | 36.60404 | -77.49806 | 19243 ft | 413 kts | 234° |
| 2026-05-07 01:47 | 36.58562 | -77.52547 | 18824 ft | 411 kts | 234° |
| 2026-05-07 01:47 | 36.56733 | -77.55271 | 18384 ft | 410 kts | 234° |
| 2026-05-07 01:47 | 36.54906 | -77.57992 | 17922 ft | 409 kts | 234° |
| 2026-05-07 01:47 | 36.53085 | -77.60696 | 17471 ft | 406 kts | 234° |
| 2026-05-07 01:48 | 36.51277 | -77.63376 | 17084 ft | 402 kts | 234° |
| 2026-05-07 01:48 | 36.49480 | -77.66037 | 17082 ft | 403 kts | 234° |
| 2026-05-07 01:48 | 36.47681 | -77.68697 | 16928 ft | 401 kts | 234° |
| 2026-05-07 01:48 | 36.45885 | -77.71349 | 16959 ft | 402 kts | 234° |
| 2026-05-07 01:49 | 36.44670 | -77.73143 | 16958 ft | 402 kts | 234° |
| 2026-05-07 01:49 | 36.42867 | -77.75802 | 16959 ft | 402 kts | 234° |
| 2026-05-07 01:49 | 36.41062 | -77.78461 | 16959 ft | 402 kts | 234° |
| 2026-05-07 01:49 | 36.39258 | -77.81113 | 16959 ft | 402 kts | 234° |
| 2026-05-07 01:50 | 36.37452 | -77.83765 | 16954 ft | 402 kts | 234° |
| 2026-05-07 01:50 | 36.35648 | -77.86420 | 16948 ft | 402 kts | 234° |
| 2026-05-07 01:50 | 36.33847 | -77.89076 | 16953 ft | 402 kts | 234° |
| 2026-05-07 01:50 | 36.32045 | -77.91730 | 16953 ft | 402 kts | 234° |
| 2026-05-07 01:51 | 36.30244 | -77.94378 | 16952 ft | 399 kts | 234° |
| 2026-05-07 01:51 | 36.28492 | -77.96940 | 16954 ft | 378 kts | 234° |
| 2026-05-07 01:51 | 36.26829 | -77.99363 | 16952 ft | 360 kts | 234° |
| 2026-05-07 01:51 | 36.25247 | -78.01665 | 16953 ft | 342 kts | 234° |
| 2026-05-07 01:52 | 36.23748 | -78.03854 | 16954 ft | 324 kts | 235° |
| 2026-05-07 01:52 | 36.22452 | -78.06020 | 16953 ft | 301 kts | 247° |
| 2026-05-07 01:52 | 36.21826 | -78.08383 | 16958 ft | 280 kts | 264° |
| 2026-05-07 01:52 | 36.21844 | -78.10724 | 16964 ft | 270 kts | 279° |
| 2026-05-07 01:53 | 36.22434 | -78.12932 | 16965 ft | 273 kts | 294° |
| 2026-05-07 01:53 | 36.23565 | -78.14850 | 16965 ft | 281 kts | 309° |
| 2026-05-07 01:53 | 36.25175 | -78.16270 | 16964 ft | 293 kts | 327° |
| 2026-05-07 01:53 | 36.27183 | -78.16986 | 16961 ft | 310 kts | 346° |
| 2026-05-07 01:54 | 36.29389 | -78.16781 | 16955 ft | 329 kts | 7° |
| 2026-05-07 01:54 | 36.31503 | -78.15535 | 16655 ft | 347 kts | 31° |
| 2026-05-07 01:54 | 36.33111 | -78.13259 | 16337 ft | 359 kts | 57° |
| 2026-05-07 01:54 | 36.34238 | -78.10483 | 16012 ft | 361 kts | 61° |
| 2026-05-07 01:55 | 36.35290 | -78.07664 | 15697 ft | 359 kts | 63° |
| 2026-05-07 01:55 | 36.36310 | -78.04839 | 15384 ft | 358 kts | 63° |
| 2026-05-07 01:55 | 36.37316 | -78.02035 | 15067 ft | 355 kts | 63° |
| 2026-05-07 01:55 | 36.38148 | -77.99158 | 14750 ft | 354 kts | 81° |
| 2026-05-07 01:56 | 36.38096 | -77.96160 | 14445 ft | 348 kts | 108° |
| 2026-05-07 01:56 | 36.37119 | -77.93478 | 14139 ft | 335 kts | 133° |
| 2026-05-07 01:56 | 36.35474 | -77.91558 | 13835 ft | 318 kts | 156° |
| 2026-05-07 01:56 | 36.33482 | -77.90567 | 13504 ft | 302 kts | 177° |
| 2026-05-07 01:57 | 36.31441 | -77.90493 | 13188 ft | 288 kts | 197° |
| 2026-05-07 01:57 | 36.29591 | -77.91231 | 12986 ft | 275 kts | 214° |
| 2026-05-07 01:57 | 36.28073 | -77.92614 | 12992 ft | 269 kts | 231° |
| 2026-05-07 01:57 | 36.26983 | -77.94466 | 12995 ft | 265 kts | 246° |
| 2026-05-07 01:58 | 36.26272 | -77.96570 | 13001 ft | 266 kts | 250° |
| 2026-05-07 01:58 | 36.25548 | -77.98708 | 12703 ft | 271 kts | 247° |
| 2026-05-07 01:58 | 36.24749 | -78.00810 | 12333 ft | 269 kts | 246° |
| 2026-05-07 01:58 | 36.23932 | -78.02893 | 11967 ft | 268 kts | 246° |
| 2026-05-07 01:59 | 36.23122 | -78.04962 | 11597 ft | 266 kts | 246° |
| 2026-05-07 01:59 | 36.22327 | -78.07030 | 11233 ft | 265 kts | 246° |
| 2026-05-07 01:59 | 36.21540 | -78.09118 | 10574 ft | 274 kts | 246° |
| 2026-05-07 01:59 | 36.20736 | -78.11286 | 9835 ft | 287 kts | 247° |
| 2026-05-07 02:00 | 36.19930 | -78.13585 | 9195 ft | 292 kts | 248° |
| 2026-05-07 02:00 | 36.19166 | -78.15864 | 8964 ft | 281 kts | 249° |
| 2026-05-07 02:00 | 36.18449 | -78.18034 | 8730 ft | 265 kts | 249° |
| 2026-05-07 02:00 | 36.17765 | -78.20104 | 8489 ft | 257 kts | 249° |
| 2026-05-07 02:01 | 36.17085 | -78.22157 | 8167 ft | 257 kts | 249° |
| 2026-05-07 02:01 | 36.16406 | -78.24199 | 7832 ft | 255 kts | 249° |
| 2026-05-07 02:01 | 36.15733 | -78.26209 | 7509 ft | 249 kts | 249° |
| 2026-05-07 02:01 | 36.15098 | -78.28138 | 7199 ft | 235 kts | 253° |
| 2026-05-07 02:02 | 36.14725 | -78.30030 | 6922 ft | 219 kts | 258° |
| 2026-05-07 02:02 | 36.14409 | -78.31821 | 6602 ft | 208 kts | 258° |
| 2026-05-07 02:02 | 36.14100 | -78.33547 | 6329 ft | 204 kts | 258° |
| 2026-05-07 02:02 | 36.13792 | -78.35254 | 6018 ft | 203 kts | 258° |
| 2026-05-07 02:03 | 36.13487 | -78.36951 | 5690 ft | 202 kts | 258° |
| 2026-05-07 02:03 | 36.13187 | -78.38631 | 5368 ft | 198 kts | 257° |
| 2026-05-07 02:03 | 36.12892 | -78.40274 | 5070 ft | 194 kts | 257° |
| 2026-05-07 02:03 | 36.12602 | -78.41902 | 5011 ft | 194 kts | 257° |
| 2026-05-07 02:04 | 36.12165 | -78.43476 | 5008 ft | 197 kts | 237° |
| 2026-05-07 02:04 | 36.11147 | -78.44646 | 5014 ft | 201 kts | 226° |
| 2026-05-07 02:04 | 36.10474 | -78.46042 | 5000 ft | 180 kts | 259° |
| 2026-05-07 02:04 | 36.10709 | -78.47475 | 5003 ft | 175 kts | 296° |
| 2026-05-07 02:05 | 36.11731 | -78.48378 | 5007 ft | 195 kts | 335° |
| 2026-05-07 02:05 | 36.13108 | -78.48562 | 5054 ft | 202 kts | 348° |
| 2026-05-07 02:05 | 36.14520 | -78.48585 | 5019 ft | 203 kts | 350° |
| 2026-05-07 02:05 | 36.15926 | -78.48588 | 5009 ft | 202 kts | 350° |
| 2026-05-07 02:06 | 36.17337 | -78.48569 | 5007 ft | 203 kts | 351° |
| 2026-05-07 02:06 | 36.18695 | -78.48794 | 4768 ft | 189 kts | 327° |
| 2026-05-07 02:06 | 36.19747 | -78.49671 | 4277 ft | 180 kts | 312° |
| 2026-05-07 02:06 | 36.20705 | -78.50652 | 3780 ft | 178 kts | 310° |
| 2026-05-07 02:07 | 36.21657 | -78.51637 | 3280 ft | 179 kts | 310° |
| 2026-05-07 02:07 | 36.23570 | -78.53625 | 3007 ft | 181 kts | 310° |
| 2026-05-07 02:07 | 36.24542 | -78.54624 | 3003 ft | 181 kts | 309° |
| 2026-05-07 02:08 | 36.25155 | -78.55855 | 3008 ft | 163 kts | 273° |
| 2026-05-07 02:08 | 36.24890 | -78.57142 | 3009 ft | 158 kts | 234° |
| 2026-05-07 02:08 | 36.24063 | -78.58067 | 3010 ft | 162 kts | 222° |
| 2026-05-07 02:08 | 36.23158 | -78.58898 | 3007 ft | 162 kts | 220° |
| 2026-05-07 02:09 | 36.22248 | -78.59719 | 3003 ft | 161 kts | 220° |
| 2026-05-07 02:09 | 36.21353 | -78.60529 | 3004 ft | 159 kts | 220° |
| 2026-05-07 02:09 | 36.20454 | -78.61331 | 3003 ft | 159 kts | 220° |
| 2026-05-07 02:09 | 36.19551 | -78.62157 | 2992 ft | 164 kts | 220° |
| 2026-05-07 02:10 | 36.18643 | -78.63028 | 2995 ft | 166 kts | 221° |
| 2026-05-07 02:10 | 36.17723 | -78.63893 | 3000 ft | 166 kts | 220° |
| 2026-05-07 02:10 | 36.16806 | -78.64769 | 2999 ft | 167 kts | 220° |
| 2026-05-07 02:10 | 36.15895 | -78.65659 | 2998 ft | 166 kts | 220° |
| 2026-05-07 02:11 | 36.14990 | -78.66541 | 2999 ft | 165 kts | 220° |
| 2026-05-07 02:11 | 36.14084 | -78.67409 | 3001 ft | 165 kts | 220° |
| 2026-05-07 02:11 | 36.13170 | -78.68282 | 3004 ft | 166 kts | 220° |
| 2026-05-07 02:11 | 36.12265 | -78.69146 | 2998 ft | 162 kts | 220° |
| 2026-05-07 02:12 | 36.11368 | -78.69994 | 2992 ft | 163 kts | 220° |
| 2026-05-07 02:12 | 36.10475 | -78.70857 | 2992 ft | 162 kts | 220° |
| 2026-05-07 02:12 | 36.09696 | -78.71608 | 2992 ft | 163 kts | 220° |
| 2026-05-07 02:12 | 36.08808 | -78.72459 | 2992 ft | 161 kts | 220° |
| 2026-05-07 02:13 | 36.07925 | -78.73298 | 2995 ft | 160 kts | 220° |
| 2026-05-07 02:13 | 36.07042 | -78.74138 | 2992 ft | 161 kts | 221° |
| 2026-05-07 02:13 | 36.06315 | -78.75152 | 2992 ft | 160 kts | 247° |
| 2026-05-07 02:13 | 36.06372 | -78.76534 | 2997 ft | 172 kts | 287° |
| 2026-05-07 02:14 | 36.07221 | -78.77558 | 2996 ft | 192 kts | 325° |
| 2026-05-07 02:14 | 36.08599 | -78.77739 | 2999 ft | 212 kts | 4° |
| 2026-05-07 02:14 | 36.09507 | -78.77250 | 2998 ft | 221 kts | 30° |
| 2026-05-07 02:14 | 36.11091 | -78.75597 | 2998 ft | 223 kts | 40° |
| 2026-05-07 02:15 | 36.12229 | -78.74307 | 2996 ft | 221 kts | 41° |
| 2026-05-07 02:15 | 36.13364 | -78.73028 | 2995 ft | 220 kts | 40° |
| 2026-05-07 02:15 | 36.14499 | -78.71736 | 3000 ft | 223 kts | 40° |
| 2026-05-07 02:15 | 36.15617 | -78.70443 | 2998 ft | 222 kts | 40° |
| 2026-05-07 02:16 | 36.16760 | -78.69136 | 2996 ft | 220 kts | 39° |
| 2026-05-07 02:16 | 36.17876 | -78.67853 | 3001 ft | 217 kts | 40° |
| 2026-05-07 02:16 | 36.18976 | -78.66614 | 2999 ft | 217 kts | 40° |
| 2026-05-07 02:16 | 36.20084 | -78.65344 | 3000 ft | 217 kts | 40° |
| 2026-05-07 02:17 | 36.21162 | -78.63979 | 2998 ft | 224 kts | 53° |
| 2026-05-07 02:17 | 36.21621 | -78.62164 | 3000 ft | 222 kts | 94° |
| 2026-05-07 02:17 | 36.21234 | -78.60417 | 3017 ft | 210 kts | 125° |
| 2026-05-07 02:17 | 36.20525 | -78.58858 | 3009 ft | 207 kts | 130° |
| 2026-05-07 02:18 | 36.19785 | -78.57329 | 2994 ft | 206 kts | 127° |
| 2026-05-07 02:18 | 36.19019 | -78.55852 | 2998 ft | 203 kts | 130° |
| 2026-05-07 02:18 | 36.18239 | -78.54395 | 2996 ft | 203 kts | 130° |
| 2026-05-07 02:18 | 36.17455 | -78.52947 | 3003 ft | 203 kts | 130° |
| 2026-05-07 02:19 | 36.16676 | -78.51495 | 2999 ft | 202 kts | 130° |
| 2026-05-07 02:19 | 36.15704 | -78.50338 | 3002 ft | 189 kts | 162° |
| 2026-05-07 02:19 | 36.14476 | -78.50098 | 3024 ft | 176 kts | 187° |
| 2026-05-07 02:19 | 36.13263 | -78.50171 | 3013 ft | 174 kts | 191° |
| 2026-05-07 02:20 | 36.12054 | -78.50261 | 3009 ft | 175 kts | 190° |
| 2026-05-07 02:20 | 36.10840 | -78.50350 | 3012 ft | 175 kts | 191° |
| 2026-05-07 02:20 | 36.09849 | -78.50683 | 3004 ft | 168 kts | 211° |
| 2026-05-07 02:20 | 36.09015 | -78.51654 | 3013 ft | 166 kts | 230° |
| 2026-05-07 02:21 | 36.08233 | -78.52699 | 3013 ft | 164 kts | 228° |
| 2026-05-07 02:21 | 36.07442 | -78.53704 | 3010 ft | 162 kts | 227° |
| 2026-05-07 02:21 | 36.06642 | -78.54708 | 3009 ft | 165 kts | 227° |
| 2026-05-07 02:21 | 36.05837 | -78.55714 | 3009 ft | 165 kts | 227° |
| 2026-05-07 02:22 | 36.05033 | -78.56714 | 3009 ft | 163 kts | 227° |
| 2026-05-07 02:22 | 36.04221 | -78.57725 | 3007 ft | 163 kts | 227° |
| 2026-05-07 02:22 | 36.03427 | -78.58712 | 3006 ft | 163 kts | 227° |
| 2026-05-07 02:22 | 36.02637 | -78.59694 | 3003 ft | 163 kts | 227° |
| 2026-05-07 02:23 | 36.01835 | -78.60691 | 3006 ft | 164 kts | 226° |
| 2026-05-07 02:23 | 36.01036 | -78.61683 | 2998 ft | 163 kts | 226° |
| 2026-05-07 02:23 | 36.00238 | -78.62675 | 3001 ft | 162 kts | 227° |
| 2026-05-07 02:23 | 35.99442 | -78.63662 | 3002 ft | 162 kts | 227° |
| 2026-05-07 02:24 | 35.98648 | -78.64647 | 3000 ft | 162 kts | 226° |
| 2026-05-07 02:24 | 35.97853 | -78.65634 | 2987 ft | 163 kts | 226° |
| 2026-05-07 02:24 | 35.97049 | -78.66631 | 2859 ft | 164 kts | 227° |
| 2026-05-07 02:24 | 35.96248 | -78.67625 | 2670 ft | 163 kts | 226° |
| 2026-05-07 02:25 | 35.95439 | -78.68627 | 2468 ft | 165 kts | 226° |
| 2026-05-07 02:25 | 35.94629 | -78.69630 | 2263 ft | 165 kts | 225° |
| 2026-05-07 02:25 | 35.93821 | -78.70632 | 2046 ft | 165 kts | 225° |
| 2026-05-07 02:25 | 35.93026 | -78.71615 | 1825 ft | 154 kts | 225° |
| 2026-05-07 02:26 | 35.92314 | -78.72497 | 1629 ft | 139 kts | 225° |
| 2026-05-07 02:26 | 35.91643 | -78.73328 | 1434 ft | 135 kts | 224° |
| 2026-05-07 02:26 | 35.90984 | -78.74144 | 1282 ft | 133 kts | 224° |
| 2026-05-07 02:26 | 35.90320 | -78.74965 | 1110 ft | 138 kts | 225° |
| 2026-05-07 02:27 | 35.89622 | -78.75828 | 957 ft | 141 kts | 225° |
| 2026-05-07 02:27 | 35.88921 | -78.76694 | 786 ft | 143 kts | 224° |
| 2026-05-07 02:27 | 35.88222 | -78.77579 | 566 ft | 144 kts | 223° |
| 2026-05-07 02:27 | 35.87548 | -78.78406 | 428 ft | 118 kts | 223° |
| 2026-05-07 02:28 | 35.87176 | -78.78852 | 424 ft | 59 kts | 225° |
| 2026-05-07 02:28 | 35.87027 | -78.79072 | 429 ft | 16 kts | 279° |
| 2026-05-07 02:28 | 35.87045 | -78.79109 | 426 ft | 1 kts | 309° |
| 2026-05-07 02:28 | 35.87050 | -78.79117 | 425 ft | 2 kts | 311° |
| 2026-05-07 02:29 | 35.87058 | -78.79126 | 435 ft | 0 kts | 317° |
| 2026-05-07 02:30 | 35.87062 | -78.79130 | 435 ft | 4 kts | 320° |
| 2026-05-07 02:30 | 35.87116 | -78.79121 | 435 ft | 11 kts | 36° |
| 2026-05-07 02:30 | 35.87152 | -78.79077 | 421 ft | 11 kts | 46° |
| 2026-05-07 02:30 | 35.87209 | -78.79005 | 432 ft | 13 kts | 45° |
| 2026-05-07 02:31 | 35.87276 | -78.78922 | 432 ft | 14 kts | 45° |
| 2026-05-07 02:31 | 35.87347 | -78.78833 | 425 ft | 15 kts | 45° |
| 2026-05-07 02:31 | 35.87427 | -78.78734 | 426 ft | 16 kts | 45° |
| 2026-05-07 02:31 | 35.87506 | -78.78636 | 425 ft | 17 kts | 44° |
| 2026-05-07 02:32 | 35.87592 | -78.78533 | 424 ft | 18 kts | 47° |
| 2026-05-07 02:32 | 35.87683 | -78.78419 | 430 ft | 19 kts | 43° |
| 2026-05-07 02:32 | 35.87755 | -78.78430 | 431 ft | 9 kts | 315° |
| 2026-05-07 02:32 | 35.87805 | -78.78493 | 434 ft | 13 kts | 314° |
| 2026-05-07 02:33 | 35.87884 | -78.78591 | 429 ft | 19 kts | 316° |
| 2026-05-07 02:33 | 35.87991 | -78.78721 | 411 ft | 24 kts | 315° |
| 2026-05-07 02:33 | 35.88102 | -78.78856 | 404 ft | 18 kts | 315° |
| 2026-05-07 02:33 | 35.88180 | -78.78966 | 391 ft | 12 kts | 290° |
| 2026-05-07 02:34 | 35.88169 | -78.79004 | 391 ft | 6 kts | 230° |
| 2026-05-07 02:34 | 35.88126 | -78.79062 | 392 ft | 11 kts | 227° |
| 2026-05-07 02:34 | 35.88055 | -78.79055 | 392 ft | 13 kts | 139° |
| 2026-05-07 02:34 | 35.88010 | -78.79007 | 392 ft | 8 kts | 141° |
| 2026-05-07 02:35 | 35.87954 | -78.79008 | 392 ft | 9 kts | 202° |
| 2026-05-07 02:35 | 35.87942 | -78.79053 | 392 ft | 4 kts | 268° |
| 2026-05-07 02:35 | 35.87942 | -78.79056 | 392 ft | 2 kts | 268° |
| 2026-05-07 02:35 | 35.87943 | -78.79032 | 392 ft | 0 kts | 269° |
| 2026-05-07 02:36 | 35.87928 | -78.79033 | 392 ft | 1 kts | 269° |
| 2026-05-07 02:36 | 35.87932 | -78.79042 | 392 ft | 2 kts | 296° |
| 2026-05-07 02:36 | 35.87937 | -78.79058 | 392 ft | 0 kts | 289° |